sensor_id;sensor_type;location;lat;lon;timestamp;P1;durP1;ratioP1;P2;durP2;ratioP2
49029;SDS011;43337;52.070;4.508;2022-10-31T00:00:54;5.00;;;1.88;;
49029;SDS011;43337;52.070;4.508;2022-10-31T00:03:20;3.75;;;1.60;;
49029;SDS011;43337;52.070;4.508;2022-10-31T00:05:46;5.03;;;1.77;;
49029;SDS011;43337;52.070;4.508;2022-10-31T00:08:13;4.85;;;1.95;;
49029;SDS011;43337;52.070;4.508;2022-10-31T00:10:40;7.32;;;1.88;;
49029;SDS011;43337;52.070;4.508;2022-10-31T00:13:07;6.90;;;1.90;;
49029;SDS011;43337;52.070;4.508;2022-10-31T00:15:37;4.63;;;2.03;;
49029;SDS011;43337;52.070;4.508;2022-10-31T00:18:03;3.75;;;1.50;;
49029;SDS011;43337;52.070;4.508;2022-10-31T00:20:30;5.32;;;1.65;;
49029;SDS011;43337;52.070;4.508;2022-10-31T00:22:59;5.40;;;1.70;;
49029;SDS011;43337;52.070;4.508;2022-10-31T00:25:26;4.95;;;1.67;;
49029;SDS011;43337;52.070;4.508;2022-10-31T00:27:52;5.78;;;2.22;;
49029;SDS011;43337;52.070;4.508;2022-10-31T00:30:18;4.00;;;1.88;;
49029;SDS011;43337;52.070;4.508;2022-10-31T00:32:44;3.13;;;1.60;;
49029;SDS011;43337;52.070;4.508;2022-10-31T00:35:09;6.60;;;1.70;;
49029;SDS011;43337;52.070;4.508;2022-10-31T00:37:34;3.70;;;1.80;;
49029;SDS011;43337;52.070;4.508;2022-10-31T00:40:00;4.63;;;1.65;;
49029;SDS011;43337;52.070;4.508;2022-10-31T00:42:25;6.15;;;2.47;;
49029;SDS011;43337;52.070;4.508;2022-10-31T00:44:50;4.18;;;1.67;;
49029;SDS011;43337;52.070;4.508;2022-10-31T00:47:16;5.82;;;2.25;;
49029;SDS011;43337;52.070;4.508;2022-10-31T00:49:41;5.38;;;2.13;;
49029;SDS011;43337;52.070;4.508;2022-10-31T00:52:06;4.75;;;1.80;;
49029;SDS011;43337;52.070;4.508;2022-10-31T00:54:32;6.28;;;2.08;;
49029;SDS011;43337;52.070;4.508;2022-10-31T00:56:57;4.50;;;1.75;;
49029;SDS011;43337;52.070;4.508;2022-10-31T00:59:22;6.45;;;1.98;;
49029;SDS011;43337;52.070;4.508;2022-10-31T01:01:48;6.03;;;1.98;;
49029;SDS011;43337;52.070;4.508;2022-10-31T01:04:13;6.03;;;1.88;;
49029;SDS011;43337;52.070;4.508;2022-10-31T01:06:39;5.45;;;1.95;;
49029;SDS011;43337;52.070;4.508;2022-10-31T01:09:04;4.80;;;1.90;;
49029;SDS011;43337;52.070;4.508;2022-10-31T01:11:29;4.57;;;1.88;;
49029;SDS011;43337;52.070;4.508;2022-10-31T01:13:54;5.03;;;2.10;;
49029;SDS011;43337;52.070;4.508;2022-10-31T01:16:21;5.68;;;2.20;;
49029;SDS011;43337;52.070;4.508;2022-10-31T01:18:48;4.45;;;1.92;;
49029;SDS011;43337;52.070;4.508;2022-10-31T01:21:25;4.60;;;2.65;;
49029;SDS011;43337;52.070;4.508;2022-10-31T01:23:55;5.10;;;2.47;;
49029;SDS011;43337;52.070;4.508;2022-10-31T01:26:22;5.13;;;1.80;;
49029;SDS011;43337;52.070;4.508;2022-10-31T01:28:56;6.28;;;2.00;;
49029;SDS011;43337;52.070;4.508;2022-10-31T01:31:24;5.53;;;2.08;;
49029;SDS011;43337;52.070;4.508;2022-10-31T01:33:51;5.47;;;2.53;;
49029;SDS011;43337;52.070;4.508;2022-10-31T01:36:18;12.95;;;2.53;;
49029;SDS011;43337;52.070;4.508;2022-10-31T01:38:47;8.07;;;2.42;;
49029;SDS011;43337;52.070;4.508;2022-10-31T01:41:15;8.13;;;2.38;;
49029;SDS011;43337;52.070;4.508;2022-10-31T01:43:47;7.43;;;2.47;;
49029;SDS011;43337;52.070;4.508;2022-10-31T01:46:34;5.25;;;1.85;;
49029;SDS011;43337;52.070;4.508;2022-10-31T01:49:10;6.63;;;2.25;;
49029;SDS011;43337;52.070;4.508;2022-10-31T01:51:41;4.88;;;2.35;;
49029;SDS011;43337;52.070;4.508;2022-10-31T01:54:12;5.30;;;2.28;;
49029;SDS011;43337;52.070;4.508;2022-10-31T01:56:41;5.55;;;2.20;;
49029;SDS011;43337;52.070;4.508;2022-10-31T01:59:10;6.43;;;2.35;;
49029;SDS011;43337;52.070;4.508;2022-10-31T02:01:38;6.40;;;2.13;;
49029;SDS011;43337;52.070;4.508;2022-10-31T02:04:04;7.03;;;2.33;;
49029;SDS011;43337;52.070;4.508;2022-10-31T02:06:44;5.82;;;2.63;;
49029;SDS011;43337;52.070;4.508;2022-10-31T02:09:14;5.00;;;2.20;;
49029;SDS011;43337;52.070;4.508;2022-10-31T02:11:41;6.78;;;2.30;;
49029;SDS011;43337;52.070;4.508;2022-10-31T02:14:08;3.95;;;2.03;;
49029;SDS011;43337;52.070;4.508;2022-10-31T02:16:33;5.53;;;2.47;;
49029;SDS011;43337;52.070;4.508;2022-10-31T02:18:58;9.70;;;2.45;;
49029;SDS011;43337;52.070;4.508;2022-10-31T02:21:39;4.65;;;2.25;;
49029;SDS011;43337;52.070;4.508;2022-10-31T02:26:57;5.15;;;2.75;;
49029;SDS011;43337;52.070;4.508;2022-10-31T02:32:20;5.55;;;2.10;;
49029;SDS011;43337;52.070;4.508;2022-10-31T02:34:57;4.70;;;2.60;;
49029;SDS011;43337;52.070;4.508;2022-10-31T02:42:51;6.45;;;2.78;;
49029;SDS011;43337;52.070;4.508;2022-10-31T02:45:32;7.93;;;2.80;;
49029;SDS011;43337;52.070;4.508;2022-10-31T02:48:08;7.38;;;2.90;;
49029;SDS011;43337;52.070;4.508;2022-10-31T02:50:37;6.32;;;3.17;;
49029;SDS011;43337;52.070;4.508;2022-10-31T02:53:06;6.88;;;3.13;;
49029;SDS011;43337;52.070;4.508;2022-10-31T02:58:10;7.45;;;3.00;;
49029;SDS011;43337;52.070;4.508;2022-10-31T03:00:45;6.72;;;3.13;;
49029;SDS011;43337;52.070;4.508;2022-10-31T03:03:14;7.88;;;3.08;;
49029;SDS011;43337;52.070;4.508;2022-10-31T03:09:03;6.70;;;3.20;;
49029;SDS011;43337;52.070;4.508;2022-10-31T03:11:48;7.55;;;3.17;;
49029;SDS011;43337;52.070;4.508;2022-10-31T03:14:25;9.32;;;3.35;;
49029;SDS011;43337;52.070;4.508;2022-10-31T03:16:57;7.73;;;3.10;;
49029;SDS011;43337;52.070;4.508;2022-10-31T03:19:31;7.32;;;3.40;;
49029;SDS011;43337;52.070;4.508;2022-10-31T03:24:42;7.18;;;3.80;;
49029;SDS011;43337;52.070;4.508;2022-10-31T03:27:09;8.93;;;4.47;;
49029;SDS011;43337;52.070;4.508;2022-10-31T03:29:38;11.10;;;5.60;;
49029;SDS011;43337;52.070;4.508;2022-10-31T03:32:08;11.20;;;5.07;;
49029;SDS011;43337;52.070;4.508;2022-10-31T03:34:38;12.48;;;5.78;;
49029;SDS011;43337;52.070;4.508;2022-10-31T03:37:06;15.75;;;7.20;;
49029;SDS011;43337;52.070;4.508;2022-10-31T03:39:36;15.00;;;6.70;;
49029;SDS011;43337;52.070;4.508;2022-10-31T03:42:07;18.10;;;7.25;;
49029;SDS011;43337;52.070;4.508;2022-10-31T03:44:36;15.30;;;7.78;;
49029;SDS011;43337;52.070;4.508;2022-10-31T03:47:06;15.77;;;7.28;;
49029;SDS011;43337;52.070;4.508;2022-10-31T03:49:32;13.90;;;6.95;;
49029;SDS011;43337;52.070;4.508;2022-10-31T03:52:01;13.57;;;6.85;;
49029;SDS011;43337;52.070;4.508;2022-10-31T03:54:44;13.90;;;8.17;;
49029;SDS011;43337;52.070;4.508;2022-10-31T03:57:17;15.75;;;7.43;;
49029;SDS011;43337;52.070;4.508;2022-10-31T03:59:55;16.73;;;7.75;;
49029;SDS011;43337;52.070;4.508;2022-10-31T04:02:22;13.85;;;7.65;;
49029;SDS011;43337;52.070;4.508;2022-10-31T04:04:54;14.82;;;7.22;;
49029;SDS011;43337;52.070;4.508;2022-10-31T04:07:20;11.90;;;6.22;;
49029;SDS011;43337;52.070;4.508;2022-10-31T04:09:49;16.23;;;6.82;;
49029;SDS011;43337;52.070;4.508;2022-10-31T04:12:16;14.00;;;6.57;;
49029;SDS011;43337;52.070;4.508;2022-10-31T04:14:43;12.38;;;5.63;;
49029;SDS011;43337;52.070;4.508;2022-10-31T04:17:12;14.95;;;6.97;;
49029;SDS011;43337;52.070;4.508;2022-10-31T04:19:40;13.98;;;6.60;;
49029;SDS011;43337;52.070;4.508;2022-10-31T04:22:06;13.15;;;6.75;;
49029;SDS011;43337;52.070;4.508;2022-10-31T04:24:31;14.90;;;6.95;;
49029;SDS011;43337;52.070;4.508;2022-10-31T04:26:56;13.40;;;7.20;;
49029;SDS011;43337;52.070;4.508;2022-10-31T04:29:22;13.10;;;6.18;;
49029;SDS011;43337;52.070;4.508;2022-10-31T04:31:47;14.10;;;6.28;;
49029;SDS011;43337;52.070;4.508;2022-10-31T04:34:12;14.27;;;6.70;;
49029;SDS011;43337;52.070;4.508;2022-10-31T04:36:38;13.90;;;6.07;;
49029;SDS011;43337;52.070;4.508;2022-10-31T04:39:03;13.13;;;6.25;;
49029;SDS011;43337;52.070;4.508;2022-10-31T04:41:28;14.77;;;6.50;;
49029;SDS011;43337;52.070;4.508;2022-10-31T04:43:54;15.40;;;7.15;;
49029;SDS011;43337;52.070;4.508;2022-10-31T04:46:19;14.95;;;6.68;;
49029;SDS011;43337;52.070;4.508;2022-10-31T04:48:44;15.48;;;7.40;;
49029;SDS011;43337;52.070;4.508;2022-10-31T04:51:10;12.57;;;6.57;;
49029;SDS011;43337;52.070;4.508;2022-10-31T04:53:35;13.35;;;6.93;;
49029;SDS011;43337;52.070;4.508;2022-10-31T04:56:00;14.02;;;6.78;;
49029;SDS011;43337;52.070;4.508;2022-10-31T04:58:26;15.10;;;7.78;;
49029;SDS011;43337;52.070;4.508;2022-10-31T05:00:52;14.05;;;6.68;;
49029;SDS011;43337;52.070;4.508;2022-10-31T05:03:18;14.57;;;7.45;;
49029;SDS011;43337;52.070;4.508;2022-10-31T05:05:44;16.40;;;8.02;;
49029;SDS011;43337;52.070;4.508;2022-10-31T05:08:09;15.40;;;7.50;;
49029;SDS011;43337;52.070;4.508;2022-10-31T05:10:34;16.90;;;7.25;;
49029;SDS011;43337;52.070;4.508;2022-10-31T05:13:01;14.30;;;7.57;;
49029;SDS011;43337;52.070;4.508;2022-10-31T05:15:27;16.55;;;8.27;;
49029;SDS011;43337;52.070;4.508;2022-10-31T05:17:53;14.57;;;7.05;;
49029;SDS011;43337;52.070;4.508;2022-10-31T05:20:20;17.52;;;7.43;;
49029;SDS011;43337;52.070;4.508;2022-10-31T05:22:51;17.75;;;8.70;;
49029;SDS011;43337;52.070;4.508;2022-10-31T05:25:18;19.20;;;10.02;;
49029;SDS011;43337;52.070;4.508;2022-10-31T05:27:45;20.08;;;9.75;;
49029;SDS011;43337;52.070;4.508;2022-10-31T05:30:12;19.00;;;8.90;;
49029;SDS011;43337;52.070;4.508;2022-10-31T05:32:41;18.98;;;9.88;;
49029;SDS011;43337;52.070;4.508;2022-10-31T05:35:08;20.75;;;11.07;;
49029;SDS011;43337;52.070;4.508;2022-10-31T05:37:35;19.13;;;9.38;;
49029;SDS011;43337;52.070;4.508;2022-10-31T05:40:02;20.63;;;10.05;;
49029;SDS011;43337;52.070;4.508;2022-10-31T05:42:31;19.70;;;8.70;;
49029;SDS011;43337;52.070;4.508;2022-10-31T05:44:57;17.40;;;8.80;;
49029;SDS011;43337;52.070;4.508;2022-10-31T05:47:22;20.45;;;9.95;;
49029;SDS011;43337;52.070;4.508;2022-10-31T05:49:48;22.02;;;9.90;;
49029;SDS011;43337;52.070;4.508;2022-10-31T05:52:13;18.15;;;9.25;;
49029;SDS011;43337;52.070;4.508;2022-10-31T05:54:39;19.33;;;9.00;;
49029;SDS011;43337;52.070;4.508;2022-10-31T05:57:04;21.30;;;9.80;;
49029;SDS011;43337;52.070;4.508;2022-10-31T05:59:30;21.63;;;10.00;;
49029;SDS011;43337;52.070;4.508;2022-10-31T06:01:55;21.92;;;9.35;;
49029;SDS011;43337;52.070;4.508;2022-10-31T06:04:20;26.15;;;10.98;;
49029;SDS011;43337;52.070;4.508;2022-10-31T06:06:46;20.33;;;8.75;;
49029;SDS011;43337;52.070;4.508;2022-10-31T06:09:11;21.02;;;9.45;;
49029;SDS011;43337;52.070;4.508;2022-10-31T06:11:36;21.58;;;10.63;;
49029;SDS011;43337;52.070;4.508;2022-10-31T06:14:02;22.02;;;10.20;;
49029;SDS011;43337;52.070;4.508;2022-10-31T06:16:27;23.23;;;10.98;;
49029;SDS011;43337;52.070;4.508;2022-10-31T06:18:52;22.17;;;10.77;;
49029;SDS011;43337;52.070;4.508;2022-10-31T06:21:18;21.77;;;10.02;;
49029;SDS011;43337;52.070;4.508;2022-10-31T06:23:43;23.45;;;10.98;;
49029;SDS011;43337;52.070;4.508;2022-10-31T06:26:08;23.20;;;10.68;;
49029;SDS011;43337;52.070;4.508;2022-10-31T06:28:34;18.20;;;10.07;;
49029;SDS011;43337;52.070;4.508;2022-10-31T06:30:59;21.17;;;11.07;;
49029;SDS011;43337;52.070;4.508;2022-10-31T06:33:24;20.75;;;10.68;;
49029;SDS011;43337;52.070;4.508;2022-10-31T06:35:50;21.42;;;9.90;;
49029;SDS011;43337;52.070;4.508;2022-10-31T06:38:15;22.75;;;10.95;;
49029;SDS011;43337;52.070;4.508;2022-10-31T06:40:40;19.67;;;10.20;;
49029;SDS011;43337;52.070;4.508;2022-10-31T06:43:06;22.10;;;10.98;;
49029;SDS011;43337;52.070;4.508;2022-10-31T06:45:31;24.17;;;12.10;;
49029;SDS011;43337;52.070;4.508;2022-10-31T06:47:57;25.73;;;12.10;;
49029;SDS011;43337;52.070;4.508;2022-10-31T06:50:22;22.38;;;11.30;;
49029;SDS011;43337;52.070;4.508;2022-10-31T06:52:52;24.85;;;12.50;;
49029;SDS011;43337;52.070;4.508;2022-10-31T06:55:18;24.35;;;11.50;;
49029;SDS011;43337;52.070;4.508;2022-10-31T06:57:48;27.60;;;12.27;;
49029;SDS011;43337;52.070;4.508;2022-10-31T07:00:15;25.23;;;12.95;;
49029;SDS011;43337;52.070;4.508;2022-10-31T07:02:40;26.17;;;13.07;;
49029;SDS011;43337;52.070;4.508;2022-10-31T07:05:06;29.40;;;14.10;;
49029;SDS011;43337;52.070;4.508;2022-10-31T07:07:31;30.30;;;15.25;;
49029;SDS011;43337;52.070;4.508;2022-10-31T07:09:56;26.73;;;13.15;;
49029;SDS011;43337;52.070;4.508;2022-10-31T07:12:22;27.35;;;13.70;;
49029;SDS011;43337;52.070;4.508;2022-10-31T07:14:47;30.13;;;15.77;;
49029;SDS011;43337;52.070;4.508;2022-10-31T07:17:12;33.85;;;17.23;;
49029;SDS011;43337;52.070;4.508;2022-10-31T07:19:38;32.40;;;15.82;;
49029;SDS011;43337;52.070;4.508;2022-10-31T07:22:03;35.92;;;17.13;;
49029;SDS011;43337;52.070;4.508;2022-10-31T07:24:28;38.10;;;16.58;;
49029;SDS011;43337;52.070;4.508;2022-10-31T07:26:56;51.55;;;19.10;;
49029;SDS011;43337;52.070;4.508;2022-10-31T07:29:22;51.08;;;19.20;;
49029;SDS011;43337;52.070;4.508;2022-10-31T07:31:47;49.42;;;18.20;;
49029;SDS011;43337;52.070;4.508;2022-10-31T07:34:12;44.63;;;17.35;;
49029;SDS011;43337;52.070;4.508;2022-10-31T07:36:38;36.50;;;17.23;;
49029;SDS011;43337;52.070;4.508;2022-10-31T07:39:04;40.65;;;17.92;;
49029;SDS011;43337;52.070;4.508;2022-10-31T07:41:29;34.33;;;15.32;;
49029;SDS011;43337;52.070;4.508;2022-10-31T07:43:55;37.45;;;15.65;;
49029;SDS011;43337;52.070;4.508;2022-10-31T07:46:21;32.30;;;15.48;;
49029;SDS011;43337;52.070;4.508;2022-10-31T07:48:47;27.70;;;13.05;;
49029;SDS011;43337;52.070;4.508;2022-10-31T07:51:12;31.52;;;14.85;;
49029;SDS011;43337;52.070;4.508;2022-10-31T07:53:37;29.27;;;14.60;;
49029;SDS011;43337;52.070;4.508;2022-10-31T07:56:03;28.27;;;14.05;;
49029;SDS011;43337;52.070;4.508;2022-10-31T07:58:28;29.70;;;15.93;;
49029;SDS011;43337;52.070;4.508;2022-10-31T08:00:53;35.10;;;14.65;;
49029;SDS011;43337;52.070;4.508;2022-10-31T08:03:19;35.65;;;16.42;;
49029;SDS011;43337;52.070;4.508;2022-10-31T08:05:44;34.33;;;14.90;;
49029;SDS011;43337;52.070;4.508;2022-10-31T08:08:11;30.38;;;14.38;;
49029;SDS011;43337;52.070;4.508;2022-10-31T08:10:37;33.55;;;15.52;;
49029;SDS011;43337;52.070;4.508;2022-10-31T08:15:30;47.47;;;14.65;;
49029;SDS011;43337;52.070;4.508;2022-10-31T08:17:56;48.03;;;15.02;;
49029;SDS011;43337;52.070;4.508;2022-10-31T08:20:22;46.20;;;13.98;;
49029;SDS011;43337;52.070;4.508;2022-10-31T08:25:28;43.00;;;14.27;;
49029;SDS011;43337;52.070;4.508;2022-10-31T08:27:55;35.00;;;15.00;;
49029;SDS011;43337;52.070;4.508;2022-10-31T08:30:22;41.63;;;15.57;;
49029;SDS011;43337;52.070;4.508;2022-10-31T08:33:03;36.15;;;15.48;;
49029;SDS011;43337;52.070;4.508;2022-10-31T08:35:33;35.50;;;15.32;;
49029;SDS011;43337;52.070;4.508;2022-10-31T08:38:02;28.42;;;14.23;;
49029;SDS011;43337;52.070;4.508;2022-10-31T08:40:28;33.65;;;14.68;;
49029;SDS011;43337;52.070;4.508;2022-10-31T08:42:59;34.75;;;13.95;;
49029;SDS011;43337;52.070;4.508;2022-10-31T08:45:25;31.92;;;14.52;;
49029;SDS011;43337;52.070;4.508;2022-10-31T08:47:51;40.72;;;13.57;;
49029;SDS011;43337;52.070;4.508;2022-10-31T08:50:16;43.30;;;15.60;;
49029;SDS011;43337;52.070;4.508;2022-10-31T08:52:42;36.33;;;14.63;;
49029;SDS011;43337;52.070;4.508;2022-10-31T08:55:08;40.83;;;15.35;;
49029;SDS011;43337;52.070;4.508;2022-10-31T08:57:33;35.05;;;15.38;;
49029;SDS011;43337;52.070;4.508;2022-10-31T08:59:58;41.42;;;14.93;;
49029;SDS011;43337;52.070;4.508;2022-10-31T09:02:24;38.30;;;15.30;;
49029;SDS011;43337;52.070;4.508;2022-10-31T09:04:49;37.38;;;14.77;;
49029;SDS011;43337;52.070;4.508;2022-10-31T09:07:14;35.97;;;15.98;;
49029;SDS011;43337;52.070;4.508;2022-10-31T09:09:40;46.53;;;15.27;;
49029;SDS011;43337;52.070;4.508;2022-10-31T09:12:05;35.22;;;14.80;;
49029;SDS011;43337;52.070;4.508;2022-10-31T09:14:30;36.13;;;15.82;;
49029;SDS011;43337;52.070;4.508;2022-10-31T09:16:56;34.28;;;16.10;;
49029;SDS011;43337;52.070;4.508;2022-10-31T09:19:21;36.45;;;16.70;;
49029;SDS011;43337;52.070;4.508;2022-10-31T09:21:46;33.20;;;17.25;;
49029;SDS011;43337;52.070;4.508;2022-10-31T09:24:12;37.50;;;17.15;;
49029;SDS011;43337;52.070;4.508;2022-10-31T09:26:37;32.53;;;16.60;;
49029;SDS011;43337;52.070;4.508;2022-10-31T09:29:02;41.47;;;17.40;;
49029;SDS011;43337;52.070;4.508;2022-10-31T09:31:28;37.00;;;16.75;;
49029;SDS011;43337;52.070;4.508;2022-10-31T09:33:54;32.55;;;17.13;;
49029;SDS011;43337;52.070;4.508;2022-10-31T09:36:19;39.28;;;17.50;;
49029;SDS011;43337;52.070;4.508;2022-10-31T09:38:44;34.10;;;16.55;;
49029;SDS011;43337;52.070;4.508;2022-10-31T09:47:08;32.22;;;15.85;;
49029;SDS011;43337;52.070;4.508;2022-10-31T09:52:08;32.97;;;17.23;;
49029;SDS011;43337;52.070;4.508;2022-10-31T09:54:40;34.78;;;16.15;;
49029;SDS011;43337;52.070;4.508;2022-10-31T09:57:14;35.03;;;15.43;;
49029;SDS011;43337;52.070;4.508;2022-10-31T09:59:42;31.80;;;15.27;;
49029;SDS011;43337;52.070;4.508;2022-10-31T10:02:27;35.90;;;15.20;;
49029;SDS011;43337;52.070;4.508;2022-10-31T10:04:59;39.85;;;16.52;;
49029;SDS011;43337;52.070;4.508;2022-10-31T10:09:57;33.00;;;14.63;;
49029;SDS011;43337;52.070;4.508;2022-10-31T10:18:18;30.90;;;15.18;;
49029;SDS011;43337;52.070;4.508;2022-10-31T10:23:51;28.10;;;15.13;;
49029;SDS011;43337;52.070;4.508;2022-10-31T10:26:28;30.50;;;15.07;;
49029;SDS011;43337;52.070;4.508;2022-10-31T10:29:03;30.00;;;15.00;;
49029;SDS011;43337;52.070;4.508;2022-10-31T10:31:51;33.15;;;15.27;;
49029;SDS011;43337;52.070;4.508;2022-10-31T10:36:58;27.23;;;14.27;;
49029;SDS011;43337;52.070;4.508;2022-10-31T10:39:32;28.08;;;14.15;;
49029;SDS011;43337;52.070;4.508;2022-10-31T10:42:07;30.75;;;13.23;;
49029;SDS011;43337;52.070;4.508;2022-10-31T10:44:55;31.00;;;13.35;;
49029;SDS011;43337;52.070;4.508;2022-10-31T10:47:41;28.90;;;12.80;;
49029;SDS011;43337;52.070;4.508;2022-10-31T10:50:18;34.67;;;12.50;;
49029;SDS011;43337;52.070;4.508;2022-10-31T10:57:56;24.05;;;12.40;;
49029;SDS011;43337;52.070;4.508;2022-10-31T11:02:56;28.05;;;12.30;;
49029;SDS011;43337;52.070;4.508;2022-10-31T11:05:28;29.75;;;13.73;;
49029;SDS011;43337;52.070;4.508;2022-10-31T11:08:00;25.42;;;12.70;;
49029;SDS011;43337;52.070;4.508;2022-10-31T11:10:26;27.60;;;12.68;;
49029;SDS011;43337;52.070;4.508;2022-10-31T11:15:36;26.38;;;12.55;;
49029;SDS011;43337;52.070;4.508;2022-10-31T11:18:19;25.02;;;13.55;;
49029;SDS011;43337;52.070;4.508;2022-10-31T11:20:50;28.75;;;13.40;;
49029;SDS011;43337;52.070;4.508;2022-10-31T11:23:22;26.40;;;12.48;;
49029;SDS011;43337;52.070;4.508;2022-10-31T11:28:21;26.80;;;12.65;;
49029;SDS011;43337;52.070;4.508;2022-10-31T11:30:50;24.65;;;11.57;;
49029;SDS011;43337;52.070;4.508;2022-10-31T11:35:55;24.13;;;11.13;;
49029;SDS011;43337;52.070;4.508;2022-10-31T11:38:21;21.67;;;9.82;;
49029;SDS011;43337;52.070;4.508;2022-10-31T11:40:53;26.20;;;12.07;;
49029;SDS011;43337;52.070;4.508;2022-10-31T11:43:21;25.83;;;11.90;;
49029;SDS011;43337;52.070;4.508;2022-10-31T11:45:47;31.30;;;12.02;;
49029;SDS011;43337;52.070;4.508;2022-10-31T11:48:16;24.95;;;11.63;;
49029;SDS011;43337;52.070;4.508;2022-10-31T11:50:47;21.92;;;11.70;;
49029;SDS011;43337;52.070;4.508;2022-10-31T11:53:16;23.73;;;12.13;;
49029;SDS011;43337;52.070;4.508;2022-10-31T11:55:44;28.88;;;12.57;;
49029;SDS011;43337;52.070;4.508;2022-10-31T11:58:20;30.30;;;12.77;;
49029;SDS011;43337;52.070;4.508;2022-10-31T12:00:49;26.63;;;12.65;;
49029;SDS011;43337;52.070;4.508;2022-10-31T12:05:41;23.63;;;12.23;;
49029;SDS011;43337;52.070;4.508;2022-10-31T12:08:10;29.75;;;13.55;;
49029;SDS011;43337;52.070;4.508;2022-10-31T12:10:44;27.10;;;12.80;;
49029;SDS011;43337;52.070;4.508;2022-10-31T12:13:34;28.40;;;11.93;;
49029;SDS011;43337;52.070;4.508;2022-10-31T12:16:11;30.35;;;14.25;;
49029;SDS011;43337;52.070;4.508;2022-10-31T12:21:24;26.48;;;12.13;;
49029;SDS011;43337;52.070;4.508;2022-10-31T12:24:13;26.45;;;12.38;;
49029;SDS011;43337;52.070;4.508;2022-10-31T12:26:54;24.27;;;11.90;;
49029;SDS011;43337;52.070;4.508;2022-10-31T12:29:45;28.60;;;12.18;;
49029;SDS011;43337;52.070;4.508;2022-10-31T12:32:36;26.48;;;12.57;;
49029;SDS011;43337;52.070;4.508;2022-10-31T12:38:09;28.77;;;13.63;;
49029;SDS011;43337;52.070;4.508;2022-10-31T12:43:46;30.30;;;13.27;;
49029;SDS011;43337;52.070;4.508;2022-10-31T12:49:07;34.78;;;14.98;;
49029;SDS011;43337;52.070;4.508;2022-10-31T12:54:36;28.90;;;13.55;;
49029;SDS011;43337;52.070;4.508;2022-10-31T12:58:09;31.67;;;14.13;;
49029;SDS011;43337;52.070;4.508;2022-10-31T13:00:18;33.33;;;14.98;;
49029;SDS011;43337;52.070;4.508;2022-10-31T13:02:49;34.97;;;14.18;;
49029;SDS011;43337;52.070;4.508;2022-10-31T13:05:21;32.85;;;15.48;;
49029;SDS011;43337;52.070;4.508;2022-10-31T13:08:07;33.53;;;15.73;;
49029;SDS011;43337;52.070;4.508;2022-10-31T13:16:43;33.10;;;14.80;;
49029;SDS011;43337;52.070;4.508;2022-10-31T13:24:57;35.50;;;15.27;;
49029;SDS011;43337;52.070;4.508;2022-10-31T13:27:29;37.47;;;17.00;;
49029;SDS011;43337;52.070;4.508;2022-10-31T13:32:39;37.67;;;16.00;;
49029;SDS011;43337;52.070;4.508;2022-10-31T13:35:15;35.25;;;17.77;;
49029;SDS011;43337;52.070;4.508;2022-10-31T13:37:46;40.03;;;16.63;;
49029;SDS011;43337;52.070;4.508;2022-10-31T13:40:34;34.75;;;16.63;;
49029;SDS011;43337;52.070;4.508;2022-10-31T13:45:46;38.78;;;17.27;;
49029;SDS011;43337;52.070;4.508;2022-10-31T13:48:18;38.25;;;16.67;;
49029;SDS011;43337;52.070;4.508;2022-10-31T13:50:59;39.45;;;17.52;;
49029;SDS011;43337;52.070;4.508;2022-10-31T13:56:18;39.70;;;16.30;;
49029;SDS011;43337;52.070;4.508;2022-10-31T13:59:12;43.03;;;18.45;;
49029;SDS011;43337;52.070;4.508;2022-10-31T14:02:12;44.05;;;19.42;;
49029;SDS011;43337;52.070;4.508;2022-10-31T14:04:54;44.40;;;18.25;;
49029;SDS011;43337;52.070;4.508;2022-10-31T14:07:22;40.05;;;17.85;;
49029;SDS011;43337;52.070;4.508;2022-10-31T14:12:36;40.67;;;17.55;;
49029;SDS011;43337;52.070;4.508;2022-10-31T14:15:14;39.58;;;18.77;;
49029;SDS011;43337;52.070;4.508;2022-10-31T14:17:56;38.83;;;18.15;;
49029;SDS011;43337;52.070;4.508;2022-10-31T14:23:12;40.72;;;18.30;;
49029;SDS011;43337;52.070;4.508;2022-10-31T14:25:53;43.15;;;18.48;;
49029;SDS011;43337;52.070;4.508;2022-10-31T14:28:22;45.88;;;20.08;;
49029;SDS011;43337;52.070;4.508;2022-10-31T14:30:57;47.72;;;20.40;;
49029;SDS011;43337;52.070;4.508;2022-10-31T14:33:25;44.90;;;20.15;;
49029;SDS011;43337;52.070;4.508;2022-10-31T14:36:30;45.00;;;19.73;;
49029;SDS011;43337;52.070;4.508;2022-10-31T14:42:19;45.88;;;20.25;;
49029;SDS011;43337;52.070;4.508;2022-10-31T14:47:57;46.53;;;22.08;;
49029;SDS011;43337;52.070;4.508;2022-10-31T14:50:44;49.08;;;20.77;;
49029;SDS011;43337;52.070;4.508;2022-10-31T14:53:16;45.47;;;20.08;;
49029;SDS011;43337;52.070;4.508;2022-10-31T14:55:49;40.47;;;19.83;;
49029;SDS011;43337;52.070;4.508;2022-10-31T14:58:19;48.75;;;20.85;;
49029;SDS011;43337;52.070;4.508;2022-10-31T15:00:50;48.63;;;19.45;;
49029;SDS011;43337;52.070;4.508;2022-10-31T15:05:59;44.58;;;20.05;;
49029;SDS011;43337;52.070;4.508;2022-10-31T15:08:46;42.85;;;19.15;;
49029;SDS011;43337;52.070;4.508;2022-10-31T15:11:22;46.95;;;20.35;;
49029;SDS011;43337;52.070;4.508;2022-10-31T15:16:16;45.20;;;19.70;;
49029;SDS011;43337;52.070;4.508;2022-10-31T15:19:06;45.22;;;20.30;;
49029;SDS011;43337;52.070;4.508;2022-10-31T15:21:35;47.22;;;20.35;;
49029;SDS011;43337;52.070;4.508;2022-10-31T15:24:04;47.47;;;19.20;;
49029;SDS011;43337;52.070;4.508;2022-10-31T15:26:35;50.03;;;19.95;;
49029;SDS011;43337;52.070;4.508;2022-10-31T15:29:14;48.20;;;20.15;;
49029;SDS011;43337;52.070;4.508;2022-10-31T15:34:20;43.63;;;19.05;;
49029;SDS011;43337;52.070;4.508;2022-10-31T15:36:49;44.88;;;19.23;;
49029;SDS011;43337;52.070;4.508;2022-10-31T15:39:16;49.17;;;20.08;;
49029;SDS011;43337;52.070;4.508;2022-10-31T15:42:43;45.63;;;18.92;;
49029;SDS011;43337;52.070;4.508;2022-10-31T15:44:47;48.60;;;20.02;;
49029;SDS011;43337;52.070;4.508;2022-10-31T15:47:20;53.35;;;19.90;;
49029;SDS011;43337;52.070;4.508;2022-10-31T15:49:52;42.75;;;19.00;;
49029;SDS011;43337;52.070;4.508;2022-10-31T15:52:37;47.95;;;19.55;;
49029;SDS011;43337;52.070;4.508;2022-10-31T15:57:38;43.95;;;18.60;;
49029;SDS011;43337;52.070;4.508;2022-10-31T16:00:06;40.55;;;18.98;;
49029;SDS011;43337;52.070;4.508;2022-10-31T16:02:32;50.05;;;19.70;;
49029;SDS011;43337;52.070;4.508;2022-10-31T16:04:58;45.95;;;18.83;;
49029;SDS011;43337;52.070;4.508;2022-10-31T16:07:28;47.00;;;18.85;;
49029;SDS011;43337;52.070;4.508;2022-10-31T16:09:56;45.00;;;18.90;;
49029;SDS011;43337;52.070;4.508;2022-10-31T16:12:24;39.70;;;17.55;;
49029;SDS011;43337;52.070;4.508;2022-10-31T16:14:57;48.95;;;19.65;;
49029;SDS011;43337;52.070;4.508;2022-10-31T16:17:24;42.72;;;18.92;;
49029;SDS011;43337;52.070;4.508;2022-10-31T16:19:58;44.22;;;18.17;;
49029;SDS011;43337;52.070;4.508;2022-10-31T16:22:27;49.88;;;19.92;;
49029;SDS011;43337;52.070;4.508;2022-10-31T16:25:00;49.83;;;19.15;;
49029;SDS011;43337;52.070;4.508;2022-10-31T16:27:30;45.45;;;19.27;;
49029;SDS011;43337;52.070;4.508;2022-10-31T16:29:58;51.97;;;19.23;;
49029;SDS011;43337;52.070;4.508;2022-10-31T16:33:02;42.38;;;19.42;;
49029;SDS011;43337;52.070;4.508;2022-10-31T16:35:24;46.65;;;20.38;;
49029;SDS011;43337;52.070;4.508;2022-10-31T16:37:57;47.42;;;18.70;;
49029;SDS011;43337;52.070;4.508;2022-10-31T16:40:22;42.10;;;18.75;;
49029;SDS011;43337;52.070;4.508;2022-10-31T16:42:48;51.15;;;19.13;;
49029;SDS011;43337;52.070;4.508;2022-10-31T16:45:18;43.67;;;19.45;;